createdAt,value
2022-08-05T00:00:56.500Z,100878.09
2022-08-05T00:03:50.955Z,100874.19
2022-08-05T00:06:27.862Z,100875.38
2022-08-05T00:08:58.316Z,100877.13
2022-08-05T00:11:34.808Z,100875.41
2022-08-05T00:14:17.238Z,100880.84
2022-08-05T00:16:52.908Z,100881.72
2022-08-05T00:19:33.241Z,100889.19
2022-08-05T00:22:04.307Z,100897.78
2022-08-05T00:24:38.508Z,100892.06
2022-08-05T00:27:21.438Z,100884.31
2022-08-05T00:29:57.955Z,100879.09
2022-08-05T00:32:29.287Z,100889.50
2022-08-05T00:35:06.059Z,100879.38
2022-08-05T00:37:53.085Z,100882.81
2022-08-05T00:40:32.107Z,100890.13
2022-08-05T00:43:02.748Z,100887.66
2022-08-05T00:45:43.040Z,100888.34
2022-08-05T00:48:13.772Z,100896.38
2022-08-05T00:50:47.091Z,100890.47
2022-08-05T00:53:45.330Z,100891.88
2022-08-05T00:56:07.855Z,100894.78
2022-08-05T00:58:37.877Z,100891.38
2022-08-05T01:01:08.851Z,100884.94
2022-08-05T01:03:40.021Z,100882.50
2022-08-05T01:06:14.128Z,100887.22
2022-08-05T01:08:47.313Z,100877.75
2022-08-05T01:11:37.239Z,100874.47
2022-08-05T01:14:32.208Z,100886.38
2022-08-05T01:17:11.693Z,100889.19
2022-08-05T01:20:01.940Z,100889.75
2022-08-05T01:22:35.081Z,100887.47
2022-08-05T01:25:19.945Z,100897.53
2022-08-05T01:27:55.403Z,100888.75
2022-08-05T01:30:34.017Z,100892.56
2022-08-05T01:33:09.333Z,100894.28
2022-08-05T01:35:53.173Z,100891.31
2022-08-05T01:38:26.905Z,100905.69
2022-08-05T01:41:01.652Z,100902.44
2022-08-05T01:43:38.011Z,100894.41
2022-08-05T01:46:42.849Z,100888.50
2022-08-05T01:49:23.996Z,100894.38
2022-08-05T01:52:02.826Z,100892.63
2022-08-05T01:54:56.441Z,100895.41
2022-08-05T01:58:10.722Z,100900.88
2022-08-05T02:00:30.007Z,100901.34
2022-08-05T02:03:16.316Z,100902.94
2022-08-05T02:05:59.644Z,100905.63
2022-08-05T02:08:31.638Z,100903.94
2022-08-05T02:11:13.998Z,100904.34
2022-08-05T02:14:17.041Z,100901.44
2022-08-05T02:16:55.858Z,100907.22
2022-08-05T02:19:28.675Z,100906.63
2022-08-05T02:22:25.741Z,100910.50
2022-08-05T02:25:14.834Z,100904.94
2022-08-05T02:27:59.303Z,100906.88
2022-08-05T02:30:34.642Z,100915.41
2022-08-05T02:33:06.711Z,100910.78
2022-08-05T02:35:56.290Z,100913.56
2022-08-05T02:38:35.100Z,100913.84
2022-08-05T02:41:17.772Z,100917.13
2022-08-05T02:44:02.337Z,100906.66
2022-08-05T02:46:53.484Z,100906.47
2022-08-05T02:49:35.644Z,100910.28
2022-08-05T02:52:29.609Z,100912.59
2022-08-05T02:55:12.285Z,100912.63
2022-08-05T02:58:20.087Z,100911.84
2022-08-05T03:00:35.739Z,100899.00
2022-08-05T03:03:07.728Z,100906.50
2022-08-05T03:06:55.283Z,100908.94
2022-08-05T03:08:30.941Z,100898.44
2022-08-05T03:11:00.930Z,100904.09
2022-08-05T03:13:52.187Z,100902.22
2022-08-05T03:16:37.725Z,100895.13
2022-08-05T03:19:12.964Z,100905.44
2022-08-05T03:21:55.386Z,100906.47
2022-08-05T03:24:29.419Z,100905.00
2022-08-05T03:27:00.041Z,100905.69
2022-08-05T03:29:44.670Z,100908.41
2022-08-05T03:32:19.811Z,100896.78
2022-08-05T03:35:00.096Z,100903.47
2022-08-05T03:37:31.584Z,100898.88
2022-08-05T03:40:14.123Z,100908.34
2022-08-05T03:42:52.473Z,100902.41
2022-08-05T03:45:26.593Z,100909.84
2022-08-05T03:47:59.362Z,100902.03
2022-08-05T03:50:42.308Z,100904.56
2022-08-05T03:56:41.261Z,100911.72
2022-08-05T03:59:22.164Z,100920.44
2022-08-05T04:01:58.927Z,100909.31
2022-08-05T04:04:30.166Z,100905.03
2022-08-05T04:07:00.780Z,100910.69
2022-08-05T04:09:36.664Z,100901.53
2022-08-05T04:12:06.020Z,100906.19
2022-08-05T04:15:03.291Z,100908.56
2022-08-05T04:17:55.566Z,100901.75
2022-08-05T04:20:24.934Z,100892.16
2022-08-05T04:22:55.557Z,100901.72
2022-08-05T04:25:56.577Z,100892.56
2022-08-05T04:28:14.936Z,100899.34
2022-08-05T04:30:43.798Z,100903.34
2022-08-05T04:34:17.483Z,100893.00
2022-08-05T04:36:44.809Z,100897.13
2022-08-05T04:39:01.707Z,100893.22
2022-08-05T04:41:37.691Z,100890.25
2022-08-05T04:44:08.981Z,100899.34
2022-08-05T04:46:39.542Z,100891.00
2022-08-05T04:49:12.444Z,100893.72
2022-08-05T04:51:44.555Z,100898.03
2022-08-05T04:54:15.096Z,100897.25
2022-08-05T04:56:44.061Z,100886.75
2022-08-05T04:59:22.166Z,100886.53
2022-08-05T05:02:07.733Z,100884.59
2022-08-05T05:04:52.322Z,100895.91
2022-08-05T05:07:24.065Z,100887.91
2022-08-05T05:09:58.516Z,100888.34
2022-08-05T05:12:27.833Z,100887.50
2022-08-05T05:14:57.264Z,100890.72
2022-08-05T05:17:56.899Z,100891.00
2022-08-05T05:20:15.516Z,100886.75
2022-08-05T05:22:49.193Z,100878.09
2022-08-05T05:25:17.980Z,100887.00
2022-08-05T05:27:53.780Z,100896.69
2022-08-05T05:30:35.066Z,100889.41
2022-08-05T05:33:16.909Z,100883.78
2022-08-05T05:35:47.748Z,100864.44
2022-08-05T05:38:22.547Z,100882.44
2022-08-05T05:40:57.446Z,100878.06
2022-08-05T05:43:56.844Z,100882.19
2022-08-05T05:46:18.797Z,100872.22
2022-08-05T05:48:48.925Z,100873.81
2022-08-05T05:51:27.740Z,100870.59
2022-08-05T05:54:01.486Z,100867.66
2022-08-05T05:56:36.942Z,100863.03
2022-08-05T05:59:07.681Z,100861.66
2022-08-05T06:01:40.345Z,100865.22
2022-08-05T06:04:12.765Z,100857.03
2022-08-05T06:06:46.413Z,100863.81
2022-08-05T06:09:26.650Z,100868.47
2022-08-05T06:12:06.382Z,100862.53
2022-08-05T06:14:40.236Z,100860.53
2022-08-05T06:17:24.396Z,100845.84
2022-08-05T06:19:59.708Z,100855.38
2022-08-05T06:22:40.541Z,100852.69
2022-08-05T06:25:59.078Z,100859.56
2022-08-05T06:28:12.288Z,100849.03
2022-08-05T06:30:51.682Z,100840.34
2022-08-05T06:33:33.403Z,100837.25
2022-08-05T06:36:10.125Z,100835.44
2022-08-05T06:38:39.101Z,100831.53
2022-08-05T06:41:15.976Z,100840.78
2022-08-05T06:44:00.235Z,100847.84
2022-08-05T06:46:35.571Z,100845.16
2022-08-05T06:49:05.778Z,100833.56
2022-08-05T06:51:47.560Z,100834.13
2022-08-05T06:54:18.117Z,100828.31
2022-08-05T06:58:03.960Z,100829.63
2022-08-05T06:59:55.223Z,100837.56
2022-08-05T07:02:32.344Z,100837.28
2022-08-05T07:05:04.119Z,100830.25
2022-08-05T07:07:45.465Z,100831.31
2022-08-05T07:10:21.523Z,100831.56
2022-08-05T07:13:56.887Z,100836.50
2022-08-05T07:17:58.679Z,100830.06
2022-08-05T07:19:38.947Z,100817.13
2022-08-05T07:22:11.321Z,100827.97
2022-08-05T07:24:54.890Z,100820.50
2022-08-05T07:27:57.063Z,100825.81
2022-08-05T07:30:22.945Z,100823.44
2022-08-05T07:32:59.361Z,100814.59
2022-08-05T07:36:03.386Z,100820.22
2022-08-05T07:38:34.293Z,100814.78
2022-08-05T07:42:07.698Z,100819.69
2022-08-05T07:44:14.449Z,100811.16
2022-08-05T07:46:50.136Z,100804.19
2022-08-05T07:49:24.392Z,100810.22
2022-08-05T07:52:03.519Z,100813.16
2022-08-05T07:54:33.595Z,100816.72
2022-08-05T07:57:16.927Z,100817.28
2022-08-05T08:00:00.885Z,100804.69
2022-08-05T08:03:14.756Z,100801.66
2022-08-05T08:05:24.530Z,100803.44
2022-08-05T08:07:59.882Z,100800.16
2022-08-05T08:10:30.308Z,100802.44
2022-08-05T08:13:04.951Z,100792.72
2022-08-05T08:16:33.330Z,100785.66
2022-08-05T08:18:28.646Z,100806.84
2022-08-05T08:21:09.859Z,100801.59
2022-08-05T08:24:03.356Z,100780.13
2022-08-05T08:26:33.426Z,100781.31
2022-08-05T08:29:29.319Z,100786.25
2022-08-05T08:31:51.539Z,100795.31
2022-08-05T08:34:30.899Z,100795.75
2022-08-05T08:37:05.307Z,100790.53
2022-08-05T08:39:37.119Z,100780.94
2022-08-05T08:42:33.891Z,100781.84
2022-08-05T08:45:22.491Z,100791.16
2022-08-05T08:48:11.768Z,100775.38
2022-08-05T08:51:07.448Z,100778.41
2022-08-05T08:53:45.128Z,100773.53
2022-08-05T08:56:14.308Z,100773.41
2022-08-05T08:58:47.513Z,100774.22
2022-08-05T09:01:18.928Z,100778.31
2022-08-05T09:03:54.506Z,100777.81
2022-08-05T09:06:30.872Z,100775.69
2022-08-05T09:09:01.792Z,100761.94
2022-08-05T09:11:52.552Z,100754.06
2022-08-05T09:14:56.575Z,100750.75
2022-08-05T09:17:40.018Z,100741.75
2022-08-05T09:20:04.873Z,100759.06
2022-08-05T09:23:09.088Z,100758.41
2022-08-05T09:26:01.504Z,100753.63
2022-08-05T09:28:41.435Z,100751.66
2022-08-05T09:31:22.808Z,100750.28
2022-08-05T09:34:03.065Z,100760.25
2022-08-05T09:36:45.810Z,100750.16
2022-08-05T09:39:39.332Z,100757.63
2022-08-05T09:42:23.659Z,100754.41
2022-08-05T09:45:17.230Z,100751.50
2022-08-05T09:47:56.521Z,100742.69
2022-08-05T09:50:44.458Z,100752.06
2022-08-05T09:53:26.004Z,100759.69
2022-08-05T09:56:31.459Z,100756.25
2022-08-05T09:59:11.236Z,100751.56
2022-08-05T10:01:47.783Z,100750.31
2022-08-05T10:04:17.534Z,100756.50
2022-08-05T10:06:59.413Z,100745.97
2022-08-05T10:09:30.335Z,100736.22
2022-08-05T10:12:18.698Z,100737.00
2022-08-05T10:15:20.221Z,100728.13
2022-08-05T10:18:10.213Z,100748.25
2022-08-05T10:20:50.372Z,100742.00
2022-08-05T10:23:34.743Z,100751.34
2022-08-05T10:26:14.513Z,100738.13
2022-08-05T10:28:46.362Z,100733.97
2022-08-05T10:32:54.908Z,100737.41
2022-08-05T10:34:17.165Z,100731.88
2022-08-05T10:36:56.250Z,100747.97
2022-08-05T10:40:03.084Z,100727.72
2022-08-05T10:42:33.781Z,100724.97
2022-08-05T10:45:21.220Z,100721.31
2022-08-05T10:51:22.164Z,100711.56
2022-08-05T10:53:51.701Z,100713.59
2022-08-05T10:56:30.025Z,100699.81
2022-08-05T10:59:12.798Z,100706.44
2022-08-05T11:02:14.236Z,100706.09
2022-08-05T11:05:05.245Z,100698.28
2022-08-05T11:08:01.240Z,100709.25
2022-08-05T11:10:27.168Z,100694.75
2022-08-05T11:13:01.306Z,100705.88
2022-08-05T11:16:00.156Z,100696.50
2022-08-05T11:18:32.556Z,100688.00
2022-08-05T11:21:49.001Z,100685.06
2022-08-05T11:24:30.660Z,100691.91
2022-08-05T11:27:50.794Z,100688.00
2022-08-05T11:30:25.911Z,100686.56
2022-08-05T11:33:46.206Z,100695.03
2022-08-05T11:36:34.501Z,100689.47
2022-08-05T11:39:09.042Z,100690.25
2022-08-05T11:42:00.655Z,100683.97
2022-08-05T11:44:53.464Z,100697.53
2022-08-05T11:47:49.933Z,100685.72
2022-08-05T11:50:14.458Z,100677.06
2022-08-05T11:52:44.146Z,100679.53
2022-08-05T11:55:15.972Z,100685.00
2022-08-05T11:58:09.840Z,100680.78
2022-08-05T12:00:38.472Z,100686.63
2022-08-05T12:03:23.982Z,100684.00
2022-08-05T12:06:11.092Z,100687.28
2022-08-05T12:08:50.889Z,100677.34
2022-08-05T12:11:39.841Z,100669.50
2022-08-05T12:14:20.332Z,100677.75
2022-08-05T12:16:53.363Z,100670.31
2022-08-05T12:20:25.422Z,100679.84
2022-08-05T12:22:20.117Z,100671.47
2022-08-05T12:24:59.687Z,100675.41
2022-08-05T12:27:33.373Z,100674.38
2022-08-05T12:30:07.221Z,100665.84
2022-08-05T12:32:54.048Z,100661.38
2022-08-05T12:35:39.526Z,100663.78
2022-08-05T12:38:10.260Z,100662.13
2022-08-05T12:40:44.124Z,100670.22
2022-08-05T12:43:20.649Z,100679.84
2022-08-05T12:45:55.013Z,100656.94
2022-08-05T12:48:40.274Z,100667.72
2022-08-05T12:52:10.817Z,100661.94
2022-08-05T12:54:03.722Z,100664.09
2022-08-05T12:56:35.340Z,100659.59
2022-08-05T12:59:20.740Z,100656.81
2022-08-05T13:02:07.103Z,100669.03
2022-08-05T13:04:54.402Z,100659.88
2022-08-05T13:07:56.113Z,100652.31
2022-08-05T13:10:19.845Z,100658.28
2022-08-05T13:12:58.055Z,100661.69
2022-08-05T13:15:36.101Z,100657.66
2022-08-05T13:18:10.921Z,100649.84
2022-08-05T13:20:49.187Z,100648.34
2022-08-05T13:23:22.683Z,100657.88
2022-08-05T13:25:58.849Z,100647.94
2022-08-05T13:28:29.310Z,100643.94
2022-08-05T13:31:03.289Z,100643.09
2022-08-05T13:34:22.452Z,100640.84
2022-08-05T13:36:31.847Z,100642.25
2022-08-05T13:39:02.684Z,100649.09
2022-08-05T13:41:51.442Z,100638.03
2022-08-05T13:44:20.356Z,100633.78
2022-08-05T13:47:04.759Z,100632.00
2022-08-05T13:49:37.774Z,100639.66
2022-08-05T13:52:18.316Z,100636.88
2022-08-05T13:54:53.767Z,100638.34
2022-08-05T13:57:23.053Z,100646.22
2022-08-05T13:59:59.404Z,100634.81
2022-08-05T14:02:38.825Z,100635.38
2022-08-05T14:05:15.149Z,100636.94
2022-08-05T14:08:00.952Z,100626.88
2022-08-05T14:10:37.428Z,100641.56
2022-08-05T14:13:10.391Z,100641.31
2022-08-05T14:16:05.955Z,100643.81
2022-08-05T14:18:43.806Z,100648.72
2022-08-05T14:22:07.182Z,100646.97
2022-08-05T14:24:01.962Z,100645.75
2022-08-05T14:26:38.765Z,100651.94
2022-08-05T14:29:16.989Z,100646.84
2022-08-05T14:32:03.618Z,100648.47
2022-08-05T14:34:45.458Z,100652.31
2022-08-05T14:37:15.527Z,100662.28
2022-08-05T14:39:49.923Z,100654.78
2022-08-05T14:42:25.814Z,100658.88
2022-08-05T14:44:59.787Z,100662.69
2022-08-05T14:48:05.537Z,100656.69
2022-08-05T14:50:19.264Z,100655.69
2022-08-05T14:52:57.549Z,100660.06
2022-08-05T14:55:39.314Z,100656.34
2022-08-05T14:58:11.031Z,100662.81
2022-08-05T15:00:58.035Z,100655.81
2022-08-05T15:03:39.226Z,100653.56
2022-08-05T15:06:14.997Z,100654.19
2022-08-05T15:08:59.214Z,100661.13
2022-08-05T15:11:51.525Z,100657.63
2022-08-05T15:14:35.637Z,100662.47
2022-08-05T15:17:44.405Z,100668.69
2022-08-05T15:19:59.356Z,100665.72
2022-08-05T15:22:28.727Z,100667.88
2022-08-05T15:24:59.517Z,100670.56
2022-08-05T15:27:32.290Z,100671.94
2022-08-05T15:30:05.849Z,100665.19
2022-08-05T15:32:34.910Z,100679.16
2022-08-05T15:35:10.041Z,100673.53
2022-08-05T15:38:33.130Z,100668.41
2022-08-05T15:41:00.921Z,100664.91
2022-08-05T15:43:20.436Z,100673.78
2022-08-05T15:46:00.525Z,100668.94
2022-08-05T15:48:30.375Z,100665.72
2022-08-05T15:51:03.321Z,100660.88
2022-08-05T15:53:38.582Z,100664.09
2022-08-05T15:56:22.806Z,100663.56
2022-08-05T15:58:52.500Z,100668.66
2022-08-05T16:01:29.836Z,100664.63
2022-08-05T16:04:10.301Z,100663.78
2022-08-05T16:06:44.798Z,100660.00
2022-08-05T16:09:15.071Z,100665.59
2022-08-05T16:11:43.945Z,100660.25
2022-08-05T16:14:17.311Z,100657.00
2022-08-05T16:16:48.894Z,100655.41
2022-08-05T16:19:25.720Z,100663.44
2022-08-05T16:22:10.520Z,100656.44
2022-08-05T16:24:52.013Z,100660.69
2022-08-05T16:27:47.110Z,100656.97
2022-08-05T16:30:25.900Z,100656.69
2022-08-05T16:32:55.641Z,100653.19
2022-08-05T16:35:27.764Z,100665.50
2022-08-05T16:38:02.977Z,100660.69
2022-08-05T16:40:52.098Z,100663.78
2022-08-05T16:43:32.141Z,100661.22
2022-08-05T16:46:13.057Z,100655.56
2022-08-05T16:48:52.258Z,100666.66
2022-08-05T16:51:21.697Z,100674.44
2022-08-05T16:54:03.089Z,100665.69
2022-08-05T16:56:36.395Z,100678.13
2022-08-05T16:59:08.168Z,100679.63
2022-08-05T17:01:54.154Z,100677.25
2022-08-05T17:04:27.328Z,100682.28
2022-08-05T17:07:11.528Z,100676.75
2022-08-05T17:09:58.210Z,100680.94
2022-08-05T17:12:51.802Z,100684.00
2022-08-05T17:15:19.284Z,100683.94
2022-08-05T17:17:55.236Z,100683.00
2022-08-05T17:20:34.448Z,100678.00
2022-08-05T17:24:04.568Z,100687.72
2022-08-05T17:26:12.691Z,100680.34
2022-08-05T17:28:43.709Z,100690.47
2022-08-05T17:31:24.113Z,100686.03
2022-08-05T17:34:05.271Z,100688.97
2022-08-05T17:36:40.084Z,100692.19
2022-08-05T17:39:24.401Z,100689.91
2022-08-05T17:42:17.541Z,100694.44
2022-08-05T17:44:52.334Z,100687.66
2022-08-05T17:47:23.726Z,100682.00
2022-08-05T17:50:03.602Z,100689.88
2022-08-05T17:52:53.081Z,100696.25
2022-08-05T17:55:34.534Z,100688.66
2022-08-05T17:58:13.352Z,100692.19
2022-08-05T18:00:47.612Z,100701.47
2022-08-05T18:03:58.695Z,100693.41
2022-08-05T18:06:17.927Z,100692.75
2022-08-05T18:08:58.207Z,100693.44
2022-08-05T18:11:33.245Z,100694.81
2022-08-05T18:14:06.796Z,100686.94
2022-08-05T18:16:51.016Z,100687.34
2022-08-05T18:19:23.234Z,100696.94
2022-08-05T18:22:08.349Z,100692.78
2022-08-05T18:24:40.485Z,100704.28
2022-08-05T18:27:19.795Z,100696.91
2022-08-05T18:29:59.510Z,100694.44
2022-08-05T18:32:35.554Z,100685.38
2022-08-05T18:35:08.312Z,100684.81
2022-08-05T18:37:50.945Z,100679.97
2022-08-05T18:40:33.679Z,100690.06
2022-08-05T18:43:16.303Z,100686.22
2022-08-05T18:45:45.807Z,100678.34
2022-08-05T18:48:30.688Z,100687.00
2022-08-05T18:54:18.953Z,100679.88
2022-08-05T18:56:50.803Z,100678.69
2022-08-05T18:59:43.652Z,100682.41
2022-08-05T19:02:11.341Z,100671.78
2022-08-05T19:06:06.253Z,100672.66
2022-08-05T19:07:58.189Z,100670.41
2022-08-05T19:10:28.391Z,100663.94
2022-08-05T19:12:58.231Z,100658.09
2022-08-05T19:15:59.959Z,100665.72
2022-08-05T19:18:22.248Z,100662.97
2022-08-05T19:21:01.953Z,100659.41
2022-08-05T19:24:05.239Z,100663.94
2022-08-05T19:26:30.800Z,100664.59
2022-08-05T19:29:07.051Z,100669.63
2022-08-05T19:31:44.975Z,100654.72
2022-08-05T19:34:20.060Z,100658.44
2022-08-05T19:36:51.487Z,100659.91
2022-08-05T19:39:20.564Z,100658.50
2022-08-05T19:42:05.913Z,100658.03
2022-08-05T19:44:45.259Z,100665.19
2022-08-05T19:47:16.289Z,100667.13
2022-08-05T19:49:46.310Z,100658.34
2022-08-05T19:52:31.790Z,100659.84
2022-08-05T19:55:08.843Z,100659.84
2022-08-05T19:58:19.425Z,100652.03
2022-08-05T20:00:39.937Z,100662.28
2022-08-05T20:03:40.515Z,100664.53
2022-08-05T20:06:15.631Z,100656.31
2022-08-05T20:09:00.871Z,100656.72
2022-08-05T20:11:48.055Z,100661.66
2022-08-05T20:14:23.522Z,100659.09
2022-08-05T20:16:58.848Z,100660.53
2022-08-05T20:19:36.006Z,100665.06
2022-08-05T20:22:05.371Z,100666.31
2022-08-05T20:24:38.313Z,100659.22
2022-08-05T20:27:11.434Z,100661.38
2022-08-05T20:29:40.753Z,100648.63
2022-08-05T20:32:10.227Z,100655.66
2022-08-05T20:34:39.336Z,100658.94
2022-08-05T20:38:04.482Z,100655.81
2022-08-05T20:39:59.289Z,100654.91
2022-08-05T20:42:38.849Z,100637.81
2022-08-05T20:45:18.223Z,100646.06
2022-08-05T20:47:55.319Z,100647.19
2022-08-05T20:50:34.335Z,100646.06
2022-08-05T20:53:16.113Z,100639.91
2022-08-05T20:56:12.135Z,100642.34
2022-08-05T20:58:41.129Z,100636.31
2022-08-05T21:01:10.053Z,100635.00
2022-08-05T21:03:48.159Z,100642.66
2022-08-05T21:06:27.966Z,100638.28
2022-08-05T21:08:57.772Z,100645.59
2022-08-05T21:12:06.612Z,100639.72
2022-08-05T21:14:18.134Z,100651.34
2022-08-05T21:16:47.770Z,100644.22
2022-08-05T21:19:24.481Z,100639.06
2022-08-05T21:22:02.877Z,100640.63
2022-08-05T21:24:32.468Z,100645.56
2022-08-05T21:27:02.721Z,100643.06
2022-08-05T21:29:32.598Z,100647.78
2022-08-05T21:32:10.016Z,100650.09
2022-08-05T21:35:08.237Z,100635.72
2022-08-05T21:37:47.431Z,100635.78
2022-08-05T21:40:32.495Z,100632.69
2022-08-05T21:43:05.728Z,100636.84
2022-08-05T21:45:51.425Z,100632.75
2022-08-05T21:48:26.875Z,100630.13
2022-08-05T21:50:57.302Z,100627.94
2022-08-05T21:53:27.224Z,100630.69
2022-08-05T21:56:09.516Z,100629.84
2022-08-05T21:58:56.860Z,100630.22
2022-08-05T22:01:26.974Z,100629.34
2022-08-05T22:03:56.218Z,100625.41
2022-08-05T22:06:34.709Z,100618.72
2022-08-05T22:09:13.805Z,100631.38
2022-08-05T22:11:46.990Z,100620.63
2022-08-05T22:14:35.627Z,100629.88
2022-08-05T22:17:12.476Z,100625.03
2022-08-05T22:20:00.697Z,100626.09
2022-08-05T22:23:00.720Z,100622.34
2022-08-05T22:26:09.585Z,100621.34
2022-08-05T22:28:36.839Z,100624.88
2022-08-05T22:31:07.680Z,100624.91
2022-08-05T22:33:55.406Z,100618.50
2022-08-05T22:36:25.750Z,100623.75
2022-08-05T22:39:09.094Z,100621.81
2022-08-05T22:42:10.590Z,100620.09
2022-08-05T22:44:29.367Z,100608.97
2022-08-05T22:47:08.398Z,100612.41
2022-08-05T22:50:21.634Z,100609.88
2022-08-05T22:52:32.561Z,100607.72
2022-08-05T22:55:19.432Z,100613.09
2022-08-05T22:57:55.239Z,100609.03
2022-08-05T23:00:29.586Z,100608.72
2022-08-05T23:03:00.334Z,100603.72
2022-08-05T23:05:36.162Z,100603.03
2022-08-05T23:08:05.543Z,100604.31
2022-08-05T23:10:34.340Z,100606.63
2022-08-05T23:13:03.731Z,100615.44
2022-08-05T23:15:35.389Z,100603.38
2022-08-05T23:18:06.169Z,100613.22
2022-08-05T23:20:43.094Z,100609.41
2022-08-05T23:23:12.272Z,100613.34
2022-08-05T23:25:52.620Z,100595.38
2022-08-05T23:28:30.887Z,100612.31
2022-08-05T23:31:17.554Z,100609.88
2022-08-05T23:34:04.124Z,100608.59
2022-08-05T23:36:45.035Z,100607.91
2022-08-05T23:39:44.417Z,100600.81
2022-08-05T23:42:14.589Z,100607.91
2022-08-05T23:44:43.617Z,100609.75
2022-08-05T23:47:17.488Z,100602.22
2022-08-05T23:49:46.623Z,100603.94
2022-08-05T23:52:28.374Z,100596.16
2022-08-05T23:54:59.331Z,100602.19
2022-08-05T23:57:35.901Z,100601.06
